createdAt,value
2022-09-17T00:01:11.103Z,3.70
2022-09-17T00:03:38.746Z,3.63
2022-09-17T00:06:08.882Z,3.30
2022-09-17T00:08:38.245Z,3.03
2022-09-17T00:11:10.031Z,3.07
2022-09-17T00:13:38.053Z,3.00
2022-09-17T00:16:06.218Z,3.00
2022-09-17T00:18:36.760Z,2.90
2022-09-17T00:21:05.080Z,2.83
2022-09-17T00:23:32.684Z,2.90
2022-09-17T00:26:00.358Z,2.33
2022-09-17T00:28:29.302Z,2.83
2022-09-17T00:30:56.874Z,3.47
2022-09-17T00:33:24.516Z,2.50
2022-09-17T00:35:59.470Z,2.33
2022-09-17T00:38:27.159Z,2.37
2022-09-17T00:40:54.944Z,2.50
2022-09-17T00:43:37.619Z,4.87
2022-09-17T00:46:07.832Z,1.93
2022-09-17T00:48:35.484Z,5.83
2022-09-17T00:51:04.087Z,5.73
2022-09-17T00:53:31.779Z,4.77
2022-09-17T00:56:04.105Z,4.83
2022-09-17T00:58:37.812Z,5.40
2022-09-17T01:01:09.506Z,5.13
2022-09-17T01:03:37.527Z,1.90
2022-09-17T01:06:16.660Z,5.00
2022-09-17T01:09:00.285Z,4.70
2022-09-17T01:11:48.058Z,1.70
2022-09-17T01:14:26.840Z,1.67
2022-09-17T01:17:02.981Z,1.43
2022-09-17T01:19:59.692Z,1.50
2022-09-17T01:22:34.899Z,1.40
2022-09-17T01:25:23.070Z,1.60
2022-09-17T01:28:27.285Z,1.67
2022-09-17T01:31:14.373Z,1.37
2022-09-17T01:36:28.612Z,1.27
2022-09-17T01:39:03.994Z,1.60
2022-09-17T01:41:41.474Z,1.70
2022-09-17T01:44:12.820Z,1.43
2022-09-17T01:46:45.728Z,1.57
2022-09-17T01:49:16.545Z,1.63
2022-09-17T01:51:49.582Z,1.53
2022-09-17T01:54:23.635Z,1.90
2022-09-17T01:56:59.263Z,1.60
2022-09-17T01:59:32.874Z,1.70
2022-09-17T02:02:08.392Z,1.67
2022-09-17T02:04:39.891Z,1.63
2022-09-17T02:07:13.370Z,1.90
2022-09-17T02:09:44.695Z,1.30
2022-09-17T02:12:19.617Z,1.70
2022-09-17T02:14:51.351Z,1.20
2022-09-17T02:17:27.015Z,1.40
2022-09-17T02:19:56.528Z,1.13
2022-09-17T02:22:29.477Z,1.63
2022-09-17T02:25:05.238Z,0.90
2022-09-17T02:27:44.851Z,1.33
2022-09-17T02:30:12.629Z,1.13
2022-09-17T02:32:42.423Z,1.10
2022-09-17T02:35:10.990Z,1.00
2022-09-17T02:37:38.562Z,1.40
2022-09-17T02:40:07.852Z,1.37
2022-09-17T02:42:50.730Z,1.10
2022-09-17T02:45:31.095Z,1.30
2022-09-17T02:48:13.613Z,1.00
2022-09-17T02:51:01.293Z,1.30
2022-09-17T02:53:38.807Z,0.90
2022-09-17T02:56:18.082Z,0.90
2022-09-17T02:58:53.719Z,1.13
2022-09-17T03:01:29.543Z,1.20
2022-09-17T03:04:02.087Z,1.20
2022-09-17T03:06:32.028Z,1.00
2022-09-17T03:08:59.673Z,1.03
2022-09-17T03:11:28.005Z,1.20
2022-09-17T03:13:55.621Z,1.07
2022-09-17T03:16:23.230Z,0.90
2022-09-17T03:18:50.998Z,1.07
2022-09-17T03:21:19.975Z,1.00
2022-09-17T03:23:48.084Z,1.17
2022-09-17T03:26:15.743Z,0.70
2022-09-17T03:28:43.439Z,1.10
2022-09-17T03:31:11.117Z,1.27
2022-09-17T03:33:38.735Z,1.03
2022-09-17T03:36:06.656Z,1.00
2022-09-17T03:38:38.555Z,1.00
2022-09-17T03:41:08.049Z,1.00
2022-09-17T03:43:35.671Z,1.00
2022-09-17T03:46:03.309Z,1.03
2022-09-17T03:48:35.202Z,1.10
2022-09-17T03:51:02.779Z,0.93
2022-09-17T03:53:30.433Z,0.90
2022-09-17T03:56:00.713Z,0.80
2022-09-17T03:58:30.654Z,0.97
2022-09-17T04:00:58.711Z,0.90
2022-09-17T04:03:26.917Z,0.90
2022-09-17T04:05:54.869Z,1.30
2022-09-17T04:08:22.526Z,0.90
2022-09-17T04:10:50.321Z,1.00
2022-09-17T04:13:19.994Z,0.90
2022-09-17T04:15:48.330Z,1.17
2022-09-17T04:18:16.395Z,1.13
2022-09-17T04:20:44.275Z,1.13
2022-09-17T04:23:13.244Z,1.00
2022-09-17T04:25:40.867Z,1.00
2022-09-17T04:28:08.981Z,1.10
2022-09-17T04:30:38.194Z,1.30
2022-09-17T04:33:05.960Z,1.27
2022-09-17T04:35:33.935Z,1.40
2022-09-17T04:38:01.686Z,0.93
2022-09-17T04:40:29.878Z,1.20
2022-09-17T04:42:59.385Z,1.07
2022-09-17T04:45:27.422Z,1.00
2022-09-17T04:47:57.559Z,1.40
2022-09-17T04:50:25.234Z,1.30
2022-09-17T04:52:52.871Z,1.30
2022-09-17T04:55:20.645Z,1.17
2022-09-17T04:57:48.989Z,1.30
2022-09-17T05:00:18.561Z,1.40
2022-09-17T05:02:48.601Z,1.00
2022-09-17T05:05:19.331Z,1.17
2022-09-17T05:07:47.338Z,1.17
2022-09-17T05:10:16.750Z,1.30
2022-09-17T05:12:49.049Z,1.40
2022-09-17T05:15:16.815Z,1.20
2022-09-17T05:17:44.404Z,1.30
2022-09-17T05:20:12.580Z,1.47
2022-09-17T05:22:45.832Z,1.00
2022-09-17T05:25:14.110Z,1.60
2022-09-17T05:27:42.921Z,1.13
2022-09-17T05:30:11.880Z,1.10
2022-09-17T05:32:40.663Z,1.27
2022-09-17T05:35:09.866Z,1.60
2022-09-17T05:37:38.191Z,1.40
2022-09-17T05:40:09.568Z,1.50
2022-09-17T05:42:37.358Z,1.00
2022-09-17T05:45:05.541Z,1.47
2022-09-17T05:47:35.276Z,1.20
2022-09-17T05:50:02.894Z,1.10
2022-09-17T05:52:30.635Z,1.43
2022-09-17T05:54:58.231Z,1.33
2022-09-17T05:57:30.006Z,1.40
2022-09-17T05:59:57.640Z,1.30
2022-09-17T06:02:25.287Z,1.00
2022-09-17T06:04:52.903Z,1.23
2022-09-17T06:07:20.489Z,1.30
2022-09-17T06:09:48.114Z,0.97
2022-09-17T06:12:15.690Z,1.20
2022-09-17T06:14:44.641Z,1.47
2022-09-17T06:17:12.250Z,1.23
2022-09-17T06:19:39.959Z,1.43
2022-09-17T06:22:07.513Z,1.20
2022-09-17T06:24:35.128Z,1.40
2022-09-17T06:27:02.748Z,1.70
2022-09-17T06:29:30.377Z,1.37
2022-09-17T06:32:00.803Z,1.30
2022-09-17T06:34:28.556Z,1.30
2022-09-17T06:36:56.115Z,0.90
2022-09-17T06:39:24.345Z,1.40
2022-09-17T06:41:51.931Z,1.40
2022-09-17T06:44:19.498Z,1.20
2022-09-17T06:46:50.966Z,1.00
2022-09-17T06:49:20.493Z,1.70
2022-09-17T06:51:48.070Z,1.67
2022-09-17T06:54:15.659Z,1.37
2022-09-17T06:56:43.267Z,1.17
2022-09-17T06:59:10.822Z,1.20
2022-09-17T07:01:38.444Z,1.27
2022-09-17T07:04:08.015Z,2.17
2022-09-17T07:06:37.109Z,4.67
2022-09-17T07:09:10.410Z,1.90
2022-09-17T07:11:38.691Z,5.60
2022-09-17T07:14:06.895Z,1.70
2022-09-17T07:16:36.770Z,1.97
2022-09-17T07:19:05.157Z,2.77
2022-09-17T07:21:33.025Z,1.70
2022-09-17T07:24:02.330Z,2.07
2022-09-17T07:26:30.018Z,11.40
2022-09-17T07:28:57.678Z,1.70
2022-09-17T07:31:25.343Z,1.50
2022-09-17T07:33:52.975Z,1.40
2022-09-17T07:36:20.626Z,1.30
2022-09-17T07:38:48.280Z,1.20
2022-09-17T07:41:18.699Z,1.00
2022-09-17T07:43:46.822Z,1.33
2022-09-17T07:46:16.612Z,1.40
2022-09-17T07:48:44.416Z,1.70
2022-09-17T07:51:16.715Z,1.30
2022-09-17T07:53:44.589Z,1.73
2022-09-17T07:56:12.286Z,1.20
2022-09-17T07:58:42.174Z,1.53
2022-09-17T08:01:11.467Z,1.27
2022-09-17T08:03:40.538Z,1.13
2022-09-17T08:06:09.998Z,1.30
2022-09-17T08:08:38.309Z,1.10
2022-09-17T08:11:08.652Z,1.40
2022-09-17T08:13:36.461Z,1.20
2022-09-17T08:16:08.080Z,1.20
2022-09-17T08:18:36.051Z,1.20
2022-09-17T08:21:05.610Z,1.10
2022-09-17T08:23:36.185Z,1.90
2022-09-17T08:26:04.465Z,1.10
2022-09-17T08:28:32.926Z,2.50
2022-09-17T08:31:02.848Z,1.47
2022-09-17T08:33:33.579Z,1.20
2022-09-17T08:36:01.773Z,1.30
2022-09-17T08:38:37.685Z,0.93
2022-09-17T08:41:19.994Z,1.10
2022-09-17T08:43:52.372Z,2.07
2022-09-17T08:46:20.184Z,1.63
2022-09-17T08:48:57.361Z,0.90
2022-09-17T08:56:27.211Z,1.33
2022-09-17T08:59:10.267Z,1.30
2022-09-17T09:01:46.081Z,1.10
2022-09-17T09:04:49.070Z,1.20
2022-09-17T09:07:20.471Z,2.07
2022-09-17T09:09:51.343Z,1.20
2022-09-17T09:12:23.992Z,1.30
2022-09-17T09:17:38.350Z,1.60
2022-09-17T09:20:05.756Z,1.27
2022-09-17T09:22:46.601Z,1.33
2022-09-17T09:25:23.119Z,1.20
2022-09-17T09:28:02.981Z,1.33
2022-09-17T09:30:40.843Z,1.60
2022-09-17T09:33:14.552Z,1.20
2022-09-17T09:35:43.957Z,1.40
2022-09-17T09:38:22.646Z,1.50
2022-09-17T09:40:55.171Z,1.70
2022-09-17T09:43:36.630Z,1.40
2022-09-17T09:46:32.245Z,1.37
2022-09-17T09:49:13.679Z,1.20
2022-09-17T09:51:51.014Z,1.70
2022-09-17T09:54:31.229Z,1.30
2022-09-17T09:57:05.980Z,1.47
2022-09-17T09:59:34.003Z,1.53
2022-09-17T10:02:01.777Z,1.20
2022-09-17T10:04:32.384Z,1.20
2022-09-17T10:07:04.133Z,1.70
2022-09-17T10:09:32.756Z,8.27
2022-09-17T10:12:02.816Z,8.37
2022-09-17T10:14:31.848Z,2.60
2022-09-17T10:17:15.852Z,2.67
2022-09-17T10:19:46.280Z,1.90
2022-09-17T10:22:25.624Z,1.70
2022-09-17T10:24:55.237Z,1.80
2022-09-17T10:27:24.790Z,2.00
2022-09-17T10:30:02.450Z,1.43
2022-09-17T10:32:30.060Z,1.30
2022-09-17T10:35:05.349Z,1.70
2022-09-17T10:37:36.276Z,1.40
2022-09-17T10:40:25.366Z,1.60
2022-09-17T10:43:20.401Z,2.30
2022-09-17T10:45:59.370Z,1.90
2022-09-17T10:48:30.423Z,1.50
2022-09-17T10:51:01.578Z,1.20
2022-09-17T10:53:29.701Z,1.70
2022-09-17T10:56:10.397Z,1.20
2022-09-17T10:58:52.115Z,1.30
2022-09-17T11:01:33.297Z,1.33
2022-09-17T11:04:22.085Z,1.10
2022-09-17T11:07:13.367Z,1.20
2022-09-17T11:09:53.706Z,1.40
2022-09-17T11:12:34.253Z,1.50
2022-09-17T11:15:12.669Z,1.67
2022-09-17T11:17:59.790Z,1.10
2022-09-17T11:20:45.635Z,1.30
2022-09-17T11:23:33.294Z,1.10
2022-09-17T11:26:05.923Z,1.30
2022-09-17T11:28:51.396Z,1.20
2022-09-17T11:31:31.781Z,1.67
2022-09-17T11:34:25.491Z,1.13
2022-09-17T11:36:59.926Z,1.30
2022-09-17T11:39:37.551Z,1.10
2022-09-17T11:42:11.050Z,1.37
2022-09-17T11:44:43.952Z,1.47
2022-09-17T11:47:15.778Z,1.57
2022-09-17T11:49:49.055Z,1.60
2022-09-17T11:52:25.350Z,1.40
2022-09-17T11:55:12.915Z,1.30
2022-09-17T11:58:11.360Z,1.40
2022-09-17T12:01:01.714Z,1.53
2022-09-17T12:03:34.811Z,1.73
2022-09-17T12:06:10.331Z,1.40
2022-09-17T12:08:43.320Z,1.40
2022-09-17T12:11:19.480Z,1.20
2022-09-17T12:13:51.574Z,1.20
2022-09-17T12:16:26.606Z,1.20
2022-09-17T12:19:01.194Z,1.10
2022-09-17T12:22:01.310Z,1.00
2022-09-17T12:24:30.899Z,1.30
2022-09-17T12:27:41.448Z,1.00
2022-09-17T12:30:18.266Z,0.87
2022-09-17T12:33:06.250Z,0.90
2022-09-17T12:36:04.169Z,0.97
2022-09-17T12:39:05.282Z,0.83
2022-09-17T12:41:43.274Z,0.93
2022-09-17T12:44:35.444Z,1.10
2022-09-17T12:47:25.587Z,1.27
2022-09-17T12:50:14.675Z,1.27
2022-09-17T12:52:58.478Z,1.03
2022-09-17T12:55:36.601Z,1.17
2022-09-17T12:58:15.630Z,1.37
2022-09-17T13:00:49.933Z,1.20
2022-09-17T13:03:26.092Z,1.57
2022-09-17T13:06:33.675Z,1.33
2022-09-17T13:09:35.563Z,1.33
2022-09-17T13:12:10.023Z,1.50
2022-09-17T13:15:07.579Z,1.30
2022-09-17T13:17:43.417Z,1.27
2022-09-17T13:20:21.757Z,1.33
2022-09-17T13:22:52.705Z,1.67
2022-09-17T13:25:22.906Z,1.10
2022-09-17T13:27:52.299Z,1.50
2022-09-17T13:30:21.347Z,1.60
2022-09-17T13:32:53.696Z,1.40
2022-09-17T13:35:50.156Z,1.50
2022-09-17T13:38:23.671Z,1.50
2022-09-17T13:40:52.468Z,1.37
2022-09-17T13:43:26.582Z,1.30
2022-09-17T13:46:23.863Z,1.80
2022-09-17T13:48:58.441Z,1.93
2022-09-17T13:51:48.237Z,1.83
2022-09-17T13:54:18.064Z,1.43
2022-09-17T13:56:49.557Z,1.30
2022-09-17T13:59:20.294Z,1.67
2022-09-17T14:02:00.825Z,1.40
2022-09-17T14:04:48.468Z,1.53
2022-09-17T14:07:49.017Z,1.47
2022-09-17T14:10:38.197Z,0.90
2022-09-17T14:13:27.871Z,1.20
2022-09-17T14:16:03.239Z,1.10
2022-09-17T14:18:37.399Z,0.90
2022-09-17T14:21:15.487Z,1.00
2022-09-17T14:23:46.962Z,0.90
2022-09-17T14:26:25.923Z,0.90
2022-09-17T14:29:01.169Z,0.70
2022-09-17T14:31:34.528Z,0.70
2022-09-17T14:34:04.667Z,0.80
2022-09-17T14:36:36.014Z,0.90
2022-09-17T14:39:07.398Z,0.80
2022-09-17T14:41:40.545Z,1.00
2022-09-17T14:44:14.593Z,0.93
2022-09-17T14:46:49.791Z,0.90
2022-09-17T14:49:22.775Z,1.00
2022-09-17T14:51:50.800Z,1.00
2022-09-17T14:54:23.026Z,1.00
2022-09-17T14:56:56.872Z,1.00
2022-09-17T14:59:43.935Z,1.10
2022-09-17T15:02:34.997Z,0.87
2022-09-17T15:05:04.181Z,0.90
2022-09-17T15:07:31.868Z,0.83
2022-09-17T15:10:15.558Z,0.80
2022-09-17T15:12:44.782Z,0.80
2022-09-17T15:15:19.180Z,0.77
2022-09-17T15:17:47.935Z,0.67
2022-09-17T15:20:20.699Z,0.60
2022-09-17T15:22:54.446Z,0.60
2022-09-17T15:25:25.438Z,0.50
2022-09-17T15:27:56.409Z,0.60
2022-09-17T15:30:25.526Z,0.70
2022-09-17T15:32:55.356Z,0.57
2022-09-17T15:35:28.232Z,0.60
2022-09-17T15:40:47.382Z,0.90
2022-09-17T15:43:19.805Z,0.80
2022-09-17T15:45:47.463Z,0.83
2022-09-17T15:48:25.845Z,0.70
2022-09-17T15:50:55.257Z,0.50
2022-09-17T15:53:27.791Z,0.80
2022-09-17T15:56:07.153Z,0.60
2022-09-17T15:58:50.990Z,0.80
2022-09-17T16:01:52.027Z,1.00
2022-09-17T16:04:22.239Z,0.80
2022-09-17T16:06:53.837Z,0.60
2022-09-17T16:09:43.063Z,0.70
2022-09-17T16:12:15.133Z,0.70
2022-09-17T16:14:47.833Z,0.77
2022-09-17T16:17:33.035Z,0.47
2022-09-17T16:20:06.161Z,0.73
2022-09-17T16:22:34.011Z,0.80
2022-09-17T16:25:01.709Z,0.83
2022-09-17T16:27:33.573Z,0.70
2022-09-17T16:30:04.406Z,0.83
2022-09-17T16:32:31.980Z,0.60
2022-09-17T16:34:59.566Z,0.60
2022-09-17T16:37:27.350Z,0.60
2022-09-17T16:39:54.977Z,0.70
2022-09-17T16:42:22.846Z,0.63
2022-09-17T16:52:15.532Z,0.50
2022-09-17T16:54:41.768Z,0.60
2022-09-17T16:57:08.026Z,0.70
2022-09-17T16:59:34.270Z,0.70
2022-09-17T17:02:00.692Z,0.70
2022-09-17T17:04:26.944Z,0.63
2022-09-17T17:06:53.193Z,0.60
2022-09-17T17:09:20.147Z,0.60
2022-09-17T17:19:15.607Z,0.80
2022-09-17T17:21:46.423Z,0.80
2022-09-17T17:24:13.471Z,0.83
2022-09-17T17:26:39.859Z,1.00
2022-09-17T17:29:07.295Z,0.70
2022-09-17T17:31:33.837Z,0.73
2022-09-17T17:34:00.223Z,0.80
2022-09-17T17:36:27.651Z,0.70
2022-09-17T17:43:57.756Z,0.60
2022-09-17T17:46:24.520Z,0.80
2022-09-17T17:48:51.179Z,0.60
2022-09-17T17:51:18.666Z,0.70
2022-09-17T17:53:45.829Z,0.57
2022-09-17T17:56:12.504Z,0.60
2022-09-17T17:58:39.678Z,0.53
2022-09-17T18:04:23.826Z,0.60
2022-09-17T18:06:50.306Z,0.87
2022-09-17T18:09:16.520Z,0.70
2022-09-17T18:11:43.006Z,0.70
2022-09-17T18:14:11.567Z,0.93
2022-09-17T18:16:38.010Z,1.07
2022-09-17T18:19:04.349Z,1.00
2022-09-17T18:25:20.416Z,1.30
2022-09-17T18:27:46.765Z,1.83
2022-09-17T18:30:13.864Z,1.40
2022-09-17T18:32:40.077Z,1.60
2022-09-17T18:35:06.776Z,1.23
2022-09-17T18:37:33.031Z,1.10
2022-09-17T18:39:59.763Z,1.27
2022-09-17T18:42:27.054Z,1.30
2022-09-17T18:52:17.070Z,2.10
2022-09-17T18:54:45.207Z,1.90
2022-09-17T18:57:12.226Z,1.50
2022-09-17T18:59:38.444Z,1.37
2022-09-17T19:02:05.883Z,1.37
2022-09-17T19:04:32.177Z,1.40
2022-09-17T19:06:58.375Z,1.67
2022-09-17T19:12:13.235Z,1.43
2022-09-17T19:14:39.481Z,1.43
2022-09-17T19:17:05.786Z,1.77
2022-09-17T19:19:32.125Z,1.30
2022-09-17T19:21:58.344Z,1.50
2022-09-17T19:24:24.563Z,1.70
2022-09-17T19:26:51.160Z,1.60
2022-09-17T19:31:56.213Z,1.50
2022-09-17T19:34:22.441Z,1.80
2022-09-17T19:36:48.698Z,1.90
2022-09-17T19:39:16.892Z,1.43
2022-09-17T19:41:43.338Z,1.33
2022-09-17T19:44:09.616Z,2.00
2022-09-17T19:46:35.892Z,1.40
2022-09-17T19:52:52.525Z,1.50
2022-09-17T19:55:19.073Z,1.10
2022-09-17T19:57:45.303Z,1.10
2022-09-17T20:00:12.870Z,1.40
2022-09-17T20:02:39.168Z,1.13
2022-09-17T20:05:06.102Z,1.30
2022-09-17T20:07:33.105Z,1.20
2022-09-17T20:10:00.466Z,1.07
2022-09-17T20:17:30.203Z,0.90
2022-09-17T20:19:56.435Z,1.20
2022-09-17T20:22:22.759Z,1.20
2022-09-17T20:24:51.045Z,1.10
2022-09-17T20:27:18.944Z,1.07
2022-09-17T20:29:46.530Z,1.10
2022-09-17T20:32:14.133Z,1.20
2022-09-17T20:34:43.105Z,1.10
2022-09-17T20:37:13.421Z,0.90
2022-09-17T20:39:41.298Z,1.00
2022-09-17T20:42:09.140Z,1.00
2022-09-17T20:44:36.702Z,1.00
2022-09-17T20:47:05.472Z,1.23
2022-09-17T20:49:33.178Z,1.00
2022-09-17T20:52:02.307Z,1.07
2022-09-17T20:54:29.875Z,1.10
2022-09-17T20:56:57.546Z,1.20
2022-09-17T20:59:29.751Z,1.03
2022-09-17T21:01:57.393Z,1.10
2022-09-17T21:04:27.214Z,1.10
2022-09-17T21:06:56.012Z,1.20
2022-09-17T21:09:24.936Z,1.20
2022-09-17T21:12:06.452Z,1.00
2022-09-17T21:14:34.069Z,1.13
2022-09-17T21:17:01.638Z,1.10
2022-09-17T21:19:29.386Z,1.10
2022-09-17T21:21:57.178Z,1.03
2022-09-17T21:24:26.192Z,1.10
2022-09-17T21:26:54.155Z,0.97
2022-09-17T21:29:21.800Z,0.70
2022-09-17T21:31:49.417Z,1.17
2022-09-17T21:34:18.371Z,0.80
2022-09-17T21:41:48.178Z,0.60
2022-09-17T21:44:14.630Z,0.50
2022-09-17T21:46:41.723Z,0.40
2022-09-17T21:49:08.617Z,0.40
2022-09-17T21:51:36.444Z,0.40
2022-09-17T21:54:06.582Z,0.37
2022-09-17T21:56:33.534Z,0.40
2022-09-17T21:59:02.011Z,0.30
2022-09-17T22:04:16.836Z,0.33
2022-09-17T22:06:44.329Z,0.47
2022-09-17T22:09:14.652Z,0.30
2022-09-17T22:11:40.982Z,0.40
2022-09-17T22:14:11.903Z,0.30
2022-09-17T22:16:40.090Z,0.40
2022-09-17T22:19:07.966Z,0.60
2022-09-17T22:21:37.564Z,0.70
2022-09-17T22:29:11.529Z,0.50
2022-09-17T22:31:38.497Z,0.40
2022-09-17T22:34:07.176Z,0.40
2022-09-17T22:36:33.664Z,0.40
2022-09-17T22:38:59.939Z,0.37
2022-09-17T22:41:28.513Z,0.60
2022-09-17T22:43:56.398Z,0.40
2022-09-17T22:49:02.482Z,0.47
2022-09-17T22:51:29.951Z,0.50
2022-09-17T22:53:57.429Z,0.50
2022-09-17T22:56:24.654Z,0.40
2022-09-17T22:58:51.431Z,0.50
2022-09-17T23:01:19.653Z,0.80
2022-09-17T23:03:48.022Z,0.50
2022-09-17T23:08:59.519Z,0.63
2022-09-17T23:11:27.397Z,0.53
2022-09-17T23:13:56.820Z,0.50
2022-09-17T23:16:23.833Z,0.60
2022-09-17T23:18:50.208Z,0.97
2022-09-17T23:21:18.343Z,0.60
2022-09-17T23:23:46.794Z,0.60
2022-09-17T23:26:16.294Z,0.60
2022-09-17T23:33:47.263Z,0.63
2022-09-17T23:36:15.775Z,0.60
2022-09-17T23:38:43.894Z,0.70
2022-09-17T23:41:14.037Z,0.77
2022-09-17T23:43:41.362Z,0.93
2022-09-17T23:46:07.754Z,0.90
2022-09-17T23:48:34.287Z,0.60
2022-09-17T23:51:02.141Z,0.70
2022-09-17T23:58:32.789Z,0.60
